Time;durP1;ratioP1;P1;durP2;ratioP2;P2;SDS_P1;SDS_P2;PMS_P1;PMS_P2;Temp;Humidity;BMP_temperature;BMP_pressure;BME280_temperature;BME280_humidity;BME280_pressure;Samples;Min_cycle;Max_cycle;Signal;HPM_P1;HPM_P2
2021/05/07 05:25:21;;;;;;;2.07;1.10;;;7.90;96.80;;;;;;4991879;28;20697;-90
2021/05/07 05:27:48;;;;;;;4.57;1.20;;;7.70;97.20;;;;;;4993532;28;20210;-92
2021/05/07 05:30:15;;;;;;;1.93;1.10;;;7.70;97.70;;;;;;4985472;28;20221;-92
2021/05/07 05:32:42;;;;;;;1.67;1.37;;;7.80;97.60;;;;;;4986154;28;20225;-89
2021/05/07 05:35:10;;;;;;;2.73;1.10;;;7.70;97.80;;;;;;4981410;28;20224;-93
2021/05/07 05:37:37;;;;;;;3.03;1.10;;;7.70;98.40;;;;;;4978374;28;20200;-94
2021/05/07 05:43:15;;;;;;;1.63;1.20;;;7.70;98.90;;;;;;4970469;28;20677;-88
2021/05/07 05:45:41;;;;;;;3.83;1.20;;;7.70;98.70;;;;;;4966373;28;20680;-89
2021/05/07 05:48:09;;;;;;;2.33;1.10;;;7.70;98.70;;;;;;4963569;28;20231;-86
2021/05/07 05:50:36;;;;;;;2.50;1.30;;;7.60;98.80;;;;;;4984462;28;20223;-89
2021/05/07 05:53:02;;;;;;;1.40;0.90;;;7.60;98.80;;;;;;4991924;28;20235;-89
2021/05/07 05:55:28;;;;;;;1.77;1.30;;;7.70;98.50;;;;;;4985564;28;20226;-89
2021/05/07 05:57:56;;;;;;;2.13;1.20;;;7.80;98.70;;;;;;4983294;28;20205;-88
2021/05/07 06:00:23;;;;;;;2.83;0.97;;;7.70;98.70;;;;;;4984177;28;20691;-87
2021/05/07 06:02:55;;;;;;;2.37;0.97;;;7.70;98.80;;;;;;4994420;28;20211;-85
2021/05/07 06:05:21;;;;;;;2.50;1.10;;;7.60;98.90;;;;;;4998123;28;20583;-87
2021/05/07 06:07:48;;;;;;;2.17;1.20;;;7.60;98.80;;;;;;4990264;28;20215;-89
2021/05/07 06:10:15;;;;;;;1.30;1.20;;;7.70;99.10;;;;;;4982626;28;20224;-91
2021/05/07 06:12:44;;;;;;;2.03;1.40;;;7.70;99.00;;;;;;4979413;28;20672;-88
2021/05/07 06:15:14;;;;;;;2.13;1.03;;;7.80;99.00;;;;;;4987813;28;20224;-88
2021/05/07 06:17:41;;;;;;;1.73;1.17;;;7.80;98.80;;;;;;4989327;28;20200;-87
2021/05/07 06:20:10;;;;;;;2.60;1.30;;;7.80;98.90;;;;;;4986475;28;20236;-91
2021/05/07 06:22:36;;;;;;;2.57;1.00;;;7.90;99.50;;;;;;4988397;28;20203;-89
2021/05/07 06:25:05;;;;;;;1.57;1.20;;;8.10;98.40;;;;;;4989941;28;20223;-89
2021/05/07 06:27:56;;;;;;;2.10;1.07;;;8.30;97.70;;;;;;4980935;28;20200;-91
2021/05/07 06:30:23;;;;;;;3.17;0.70;;;8.50;96.80;;;;;;4997738;28;20589;-87
2021/05/07 06:36:20;;;;;;;1.25;0.77;;;9.10;95.90;;;;;;5001654;28;20238;-89
2021/05/07 06:38:46;;;;;;;0.75;0.70;;;9.50;94.40;;;;;;5002834;28;20212;-86
2021/05/07 06:41:13;;;;;;;0.73;0.60;;;9.90;92.50;;;;;;5006471;28;20211;-86
2021/05/07 06:44:05;;;;;;;0.80;0.50;;;10.00;92.00;;;;;;5002348;28;20224;-89
2021/05/07 06:47:13;;;;;;;0.50;0.50;;;10.40;90.50;;;;;;4996833;28;20568;-85
2021/05/07 06:49:41;;;;;;;0.98;0.80;;;10.70;90.40;;;;;;4995881;28;20259;-89
2021/05/07 06:52:17;;;;;;;0.95;0.57;;;10.90;88.00;;;;;;4998257;28;20228;-88
2021/05/07 06:54:45;;;;;;;0.68;0.68;;;10.80;87.60;;;;;;4993798;28;20232;-90
2021/05/07 06:57:11;;;;;;;0.82;0.60;;;10.90;89.20;;;;;;5001254;28;20271;-90
2021/05/07 06:59:37;;;;;;;0.68;0.68;;;11.00;88.80;;;;;;4991600;28;20765;-89
2021/05/07 07:02:04;;;;;;;0.82;0.70;;;11.00;86.20;;;;;;4999026;28;20212;-88
2021/05/07 07:04:31;;;;;;;0.77;0.77;;;11.00;85.50;;;;;;4994937;28;20239;-90
2021/05/07 07:06:59;;;;;;;2.20;0.50;;;11.10;87.00;;;;;;5000382;28;20196;-89
2021/05/07 07:09:26;;;;;;;0.90;0.90;;;11.20;84.90;;;;;;4991531;28;20242;-90
2021/05/07 07:11:53;;;;;;;0.70;0.70;;;11.20;84.70;;;;;;4989901;28;20204;-90
2021/05/07 07:14:20;;;;;;;0.90;0.90;;;11.30;84.00;;;;;;4993795;28;20210;-90
2021/05/07 07:17:15;;;;;;;0.60;0.50;;;11.40;82.90;;;;;;5003486;28;20215;-89
2021/05/07 07:19:43;;;;;;;0.45;0.45;;;11.50;84.10;;;;;;5008782;28;20228;-92
2021/05/07 07:22:10;;;;;;;0.50;0.50;;;11.80;82.00;;;;;;5007763;28;20689;-91
2021/05/07 07:24:36;;;;;;;0.63;0.60;;;11.80;81.70;;;;;;4998681;28;20237;-90
2021/05/07 07:27:05;;;;;;;1.35;0.55;;;11.60;80.20;;;;;;5005623;28;20566;-88
2021/05/07 07:32:53;;;;;;;0.73;0.57;;;11.30;82.60;;;;;;5002964;28;20219;-88
2021/05/07 07:35:24;;;;;;;2.95;0.75;;;11.30;85.30;;;;;;5003271;28;20232;-90
2021/05/07 07:37:50;;;;;;;0.88;0.70;;;11.20;84.70;;;;;;4994162;28;20227;-89
2021/05/07 07:40:17;;;;;;;1.83;0.90;;;11.20;85.80;;;;;;4988748;28;20234;-90
2021/05/07 07:42:43;;;;;;;1.17;0.93;;;10.80;85.80;;;;;;4987642;28;20208;-89
2021/05/07 07:45:12;;;;;;;1.90;0.80;;;10.70;88.10;;;;;;4988502;28;20235;-89
2021/05/07 07:47:38;;;;;;;1.60;0.98;;;10.50;90.10;;;;;;4988472;28;20648;-89
2021/05/07 07:50:06;;;;;;;1.30;1.20;;;10.50;91.00;;;;;;4987497;28;20952;-89
2021/05/07 07:52:35;;;;;;;3.20;1.25;;;10.40;91.60;;;;;;4991574;28;20235;-90
2021/05/07 07:55:03;;;;;;;3.20;1.20;;;10.30;91.80;;;;;;4988692;28;20750;-89
2021/05/07 07:57:29;;;;;;;3.53;1.58;;;10.10;92.80;;;;;;4991664;28;20209;-89
2021/05/07 07:59:56;;;;;;;2.17;1.15;;;10.00;93.70;;;;;;4994168;28;20228;-89
2021/05/07 08:02:25;;;;;;;3.08;1.48;;;10.10;93.60;;;;;;4989067;28;20209;-89
2021/05/07 08:04:51;;;;;;;4.35;1.40;;;10.00;93.20;;;;;;5000932;28;20315;-89
2021/05/07 08:07:18;;;;;;;2.42;1.50;;;9.90;94.60;;;;;;4998231;28;20212;-89
2021/05/07 08:09:48;;;;;;;5.95;1.55;;;9.80;94.10;;;;;;4993403;28;20282;-89
2021/05/07 08:12:14;;;;;;;3.97;1.30;;;9.70;94.80;;;;;;5000153;28;20224;-91
2021/05/07 08:14:41;;;;;;;1.20;1.10;;;9.60;93.40;;;;;;4991957;28;20259;-89
2021/05/07 08:17:08;;;;;;;1.00;0.80;;;9.20;92.10;;;;;;4998913;28;20239;-88
2021/05/07 08:19:35;;;;;;;1.23;1.13;;;8.80;92.30;;;;;;4993744;28;20240;-88
2021/05/07 08:22:02;;;;;;;1.10;1.00;;;8.50;93.00;;;;;;4999398;28;20212;-89
2021/05/07 08:24:30;;;;;;;1.20;1.10;;;8.30;93.30;;;;;;4998679;28;20227;-87
2021/05/07 08:26:59;;;;;;;1.10;0.70;;;8.20;93.10;;;;;;4992235;28;20207;-85
2021/05/07 08:29:26;;;;;;;1.00;0.90;;;8.00;93.80;;;;;;4994269;28;20236;-85
2021/05/07 08:31:52;;;;;;;0.70;0.70;;;8.10;93.80;;;;;;4989949;28;21655;-85
2021/05/07 08:34:20;;;;;;;0.90;0.90;;;8.20;93.60;;;;;;4992514;28;20243;-87
2021/05/07 08:36:47;;;;;;;0.80;0.70;;;8.20;92.60;;;;;;4992669;28;20263;-87
2021/05/07 08:39:13;;;;;;;0.83;0.83;;;8.20;93.10;;;;;;4983754;28;20204;-89
2021/05/07 08:41:42;;;;;;;1.37;1.03;;;8.10;92.70;;;;;;4996215;28;20204;-85
2021/05/07 08:44:10;;;;;;;0.63;0.60;;;7.90;93.30;;;;;;5011428;28;20222;-90
2021/05/07 08:53:26;;;;;;;2.93;0.80;;;7.60;94.00;;;;;;5013832;28;20221;-91
2021/05/07 08:55:54;;;;;;;0.70;0.70;;;7.60;94.00;;;;;;4993346;28;20223;-90
2021/05/07 08:58:21;;;;;;;2.00;0.77;;;7.50;93.50;;;;;;4992163;28;20210;-91
2021/05/07 09:00:48;;;;;;;1.77;0.73;;;7.50;93.80;;;;;;5002169;28;20278;-89
2021/05/07 09:03:16;;;;;;;0.70;0.70;;;7.30;94.00;;;;;;4993472;28;20664;-89
2021/05/07 09:05:43;;;;;;;0.97;0.90;;;7.20;94.30;;;;;;4987586;28;20220;-91
2021/05/07 09:08:10;;;;;;;0.70;0.70;;;7.20;94.10;;;;;;4995131;28;20207;-88
2021/05/07 09:10:38;;;;;;;1.30;0.60;;;7.10;94.10;;;;;;4994025;28;20240;-93
2021/05/07 09:13:22;;;;;;;2.77;0.60;;;7.10;93.50;;;;;;4997629;28;20216;-93
2021/05/07 09:16:25;;;;;;;0.60;0.60;;;7.50;94.00;;;;;;4997751;28;20184;-88
2021/05/07 09:19:17;;;;;;;1.30;0.70;;;8.10;93.50;;;;;;5000120;28;20192;-89
2021/05/07 09:21:49;;;;;;;3.23;0.90;;;8.40;92.50;;;;;;4996165;28;20212;-89
2021/05/07 09:24:17;;;;;;;2.33;1.60;;;8.50;91.20;;;;;;4996218;28;20275;-92
2021/05/07 09:26:50;;;;;;;0.80;0.63;;;8.80;91.50;;;;;;4998049;28;20204;-94
2021/05/07 09:29:22;;;;;;;1.30;1.10;;;8.90;90.40;;;;;;5003304;28;20228;-92
2021/05/07 09:31:53;;;;;;;1.40;0.80;;;9.00;91.80;;;;;;5005947;28;20231;-89
2021/05/07 09:41:21;;;;;;;0.65;0.65;;;9.50;86.40;;;;;;5001276;28;21027;-87
2021/05/07 09:43:47;;;;;;;0.60;0.60;;;9.80;86.20;;;;;;5002305;28;20573;-88
2021/05/07 09:46:33;;;;;;;0.88;0.88;;;9.90;84.20;;;;;;5002825;28;20699;-91
2021/05/07 09:49:55;;;;;;;0.65;0.65;;;10.00;82.80;;;;;;5004287;28;20246;-88
2021/05/07 09:52:26;;;;;;;0.60;0.60;;;10.00;81.10;;;;;;5004784;28;20705;-90
2021/05/07 09:54:56;;;;;;;2.92;0.77;;;9.90;84.90;;;;;;4996959;28;20236;-87
2021/05/07 09:57:24;;;;;;;0.73;0.73;;;9.90;86.40;;;;;;4988062;28;20204;-86
2021/05/07 09:59:51;;;;;;;1.65;0.80;;;10.10;86.40;;;;;;4998820;28;20316;-90
2021/05/07 10:02:30;;;;;;;1.40;0.90;;;10.60;81.70;;;;;;5001419;28;20255;-87
2021/05/07 10:05:06;;;;;;;1.17;0.68;;;10.80;78.50;;;;;;5005510;28;20765;-89
2021/05/07 10:07:33;;;;;;;0.80;0.80;;;10.60;78.60;;;;;;5010086;28;20198;-90
2021/05/07 10:10:07;;;;;;;0.70;0.70;;;10.20;79.50;;;;;;4994750;28;20202;-90
2021/05/07 10:12:35;;;;;;;1.10;1.00;;;9.80;83.50;;;;;;4992588;28;20574;-91
2021/05/07 10:15:02;;;;;;;0.80;0.80;;;9.50;84.90;;;;;;4996197;28;20228;-90
2021/05/07 10:17:29;;;;;;;0.57;0.57;;;9.70;86.30;;;;;;5009337;28;20290;-90
2021/05/07 10:19:55;;;;;;;0.90;0.90;;;9.90;85.60;;;;;;5000762;28;20227;-90
2021/05/07 10:22:38;;;;;;;0.60;0.60;;;10.30;84.10;;;;;;5000833;28;20208;-89
2021/05/07 10:25:19;;;;;;;0.80;0.77;;;10.10;82.20;;;;;;5002909;28;20310;-87
2021/05/07 10:27:49;;;;;;;1.08;1.08;;;10.20;82.60;;;;;;5019243;28;20581;-88
2021/05/07 10:30:36;;;;;;;1.08;0.80;;;10.50;81.00;;;;;;5004009;28;20220;-88
2021/05/07 10:33:09;;;;;;;0.70;0.70;;;10.60;79.70;;;;;;4987208;28;20240;-87
2021/05/07 10:35:54;;;;;;;0.80;0.80;;;10.70;79.30;;;;;;4998311;28;20879;-88
2021/05/07 10:38:22;;;;;;;1.52;0.80;;;10.80;76.90;;;;;;4995819;28;20204;-85
2021/05/07 10:41:21;;;;;;;1.17;0.90;;;10.70;79.30;;;;;;4994797;28;20240;-87
2021/05/07 10:44:11;;;;;;;0.80;0.80;;;10.70;79.80;;;;;;4998924;28;20741;-86
2021/05/07 10:46:37;;;;;;;1.23;1.13;;;10.50;79.20;;;;;;4995899;28;20223;-87
2021/05/07 10:49:04;;;;;;;1.10;0.90;;;10.40;79.10;;;;;;4993208;28;20218;-87
2021/05/07 10:51:30;;;;;;;0.93;0.93;;;10.40;78.10;;;;;;4965446;28;20231;-86
2021/05/07 10:54:10;;;;;;;1.13;1.02;;;10.50;80.80;;;;;;4971343;28;20216;-85
2021/05/07 10:56:38;;;;;;;0.93;0.93;;;11.00;75.80;;;;;;4989915;28;20224;-85
2021/05/07 10:59:58;;;;;;;1.50;1.25;;;11.60;74.90;;;;;;4982859;28;20234;-84
2021/05/07 11:02:55;;;;;;;2.17;1.08;;;11.90;72.00;;;;;;4992500;28;20219;-86
2021/05/07 11:05:36;;;;;;;1.60;1.45;;;12.00;69.70;;;;;;4976021;28;20707;-88
2021/05/07 11:08:04;;;;;;;2.80;1.33;;;11.90;69.90;;;;;;4971522;28;20193;-89
2021/05/07 11:14:22;;;;;;;1.10;1.10;;;12.30;63.70;;;;;;4986101;28;20245;-88
2021/05/07 11:16:56;;;;;;;1.25;1.15;;;12.50;65.30;;;;;;4992591;28;20227;-88
2021/05/07 11:19:34;;;;;;;1.58;1.48;;;12.40;60.90;;;;;;4990741;28;20196;-87
2021/05/07 11:22:03;;;;;;;1.73;1.40;;;12.10;58.80;;;;;;4996401;28;20242;-84
2021/05/07 11:24:44;;;;;;;1.80;1.58;;;11.40;64.40;;;;;;4995983;28;20213;-85
2021/05/07 11:27:19;;;;;;;1.40;1.30;;;10.80;67.10;;;;;;5002143;28;20722;-85
2021/05/07 11:29:46;;;;;;;1.50;1.40;;;10.60;73.70;;;;;;4984341;28;20234;-87
2021/05/07 11:32:14;;;;;;;4.35;1.77;;;10.70;73.80;;;;;;5003544;28;20565;-87
2021/05/07 11:34:41;;;;;;;1.88;1.70;;;10.60;73.70;;;;;;5008950;28;20261;-87
2021/05/07 11:37:08;;;;;;;1.95;1.80;;;10.60;73.70;;;;;;5004283;28;20204;-88
2021/05/07 11:39:35;;;;;;;2.78;1.83;;;10.70;73.80;;;;;;4972629;28;20649;-87
2021/05/07 11:45:28;;;;;;;1.98;1.88;;;10.60;73.70;;;;;;5002217;28;20318;-86
2021/05/07 11:55:24;;;;;;;3.55;2.33;;;10.00;70.70;;;;;;5016280;28;20197;-87
2021/05/07 11:58:11;;;;;;;3.80;2.20;;;9.80;74.70;;;;;;5019575;28;20264;-87
2021/05/07 12:00:40;;;;;;;2.72;2.53;;;9.70;74.60;;;;;;5019456;28;20580;-87
2021/05/07 12:03:08;;;;;;;2.92;2.60;;;9.60;71.90;;;;;;5019433;28;20191;-87
2021/05/07 12:09:57;;;;;;;2.67;2.47;;;9.40;76.90;;;;;;5019473;28;20183;-87
2021/05/07 12:15:48;;;;;;;3.60;3.20;;;8.90;83.70;;;;;;5024257;28;20250;-87
2021/05/07 12:18:16;;;;;;;3.28;2.92;;;8.90;83.80;;;;;;5023368;28;20203;-87
2021/05/07 12:20:55;;;;;;;3.30;3.00;;;8.80;83.40;;;;;;5018116;28;20702;-87
2021/05/07 12:23:22;;;;;;;5.00;2.83;;;8.80;82.30;;;;;;4997981;28;20235;-89
2021/05/07 12:25:49;;;;;;;3.23;3.00;;;8.70;80.00;;;;;;5000013;28;20310;-86
2021/05/07 12:28:17;;;;;;;3.00;2.70;;;8.50;81.40;;;;;;4999416;28;20224;-86
2021/05/07 12:30:45;;;;;;;3.77;2.63;;;8.50;79.10;;;;;;4997269;28;20629;-86
2021/05/07 12:33:18;;;;;;;2.90;2.60;;;8.30;80.10;;;;;;5000578;28;20593;-85
2021/05/07 12:35:46;;;;;;;4.07;2.90;;;8.30;82.00;;;;;;4998218;28;20974;-86
2021/05/07 12:38:17;;;;;;;3.00;2.70;;;8.10;82.10;;;;;;5000728;28;20204;-86
2021/05/07 12:40:44;;;;;;;5.50;2.87;;;8.00;80.40;;;;;;5000475;28;20231;-86
2021/05/07 12:43:10;;;;;;;5.07;2.63;;;8.10;81.60;;;;;;4994430;28;20204;-88
2021/05/07 12:45:47;;;;;;;4.67;3.33;;;8.10;82.30;;;;;;4992917;28;20256;-86
2021/05/07 12:48:15;;;;;;;3.97;3.37;;;8.00;80.30;;;;;;5000785;28;20235;-86
2021/05/07 12:50:47;;;;;;;2.83;2.63;;;8.10;84.10;;;;;;4995704;28;20242;-90
2021/05/07 12:53:17;;;;;;;3.23;2.23;;;8.20;81.20;;;;;;4986890;28;20216;-88
2021/05/07 12:55:44;;;;;;;2.50;2.30;;;8.00;81.20;;;;;;4982572;28;20633;-88
2021/05/07 14:00:58;;;;;;;3.33;2.50;;;11.30;58.90;;;;;;5034781;28;20245;-92
2021/05/07 14:16:33;;;;;;;2.33;2.10;;;9.60;63.80;;;;;;4937757;28;20205;-93
2021/05/07 14:19:07;;;;;;;6.23;2.20;;;9.20;67.60;;;;;;4965984;28;20203;-93
2021/05/07 14:21:51;;;;;;;2.40;2.20;;;9.00;72.40;;;;;;5055118;28;20218;-92
2021/05/07 15:06:28;;;;;;;2.88;2.38;;;11.10;42.00;;;;;;5310640;22;20236;-92
2021/05/07 15:08:55;;;;;;;3.38;2.20;;;10.90;42.40;;;;;;5046783;28;20281;-90
2021/05/07 15:11:21;;;;;;;2.78;2.20;;;11.10;44.20;;;;;;5036157;28;20234;-90
2021/05/07 15:13:48;;;;;;;3.00;2.08;;;11.30;43.10;;;;;;5019953;28;20219;-91
2021/05/07 15:16:14;;;;;;;2.28;2.08;;;11.30;43.60;;;;;;5022190;28;20604;-87
2021/05/07 15:18:40;;;;;;;2.40;2.00;;;11.40;43.10;;;;;;5019270;28;20194;-92
2021/05/07 15:21:17;;;;;;;5.28;2.38;;;11.30;40.90;;;;;;5019006;28;20227;-91
2021/05/07 15:24:09;;;;;;;2.38;1.92;;;11.20;43.40;;;;;;5019268;28;20268;-90
2021/05/07 15:27:34;;;;;;;3.20;1.83;;;11.20;43.80;;;;;;5014109;28;20203;-93
2021/05/07 15:30:00;;;;;;;2.60;1.85;;;11.40;41.70;;;;;;5107947;23;20243;-92
2021/05/07 15:32:27;;;;;;;2.65;1.80;;;11.30;41.00;;;;;;4982571;28;20567;-91
2021/05/07 15:35:00;;;;;;;3.25;2.17;;;11.40;39.90;;;;;;4979766;28;20242;-92
2021/05/07 15:37:28;;;;;;;3.67;1.80;;;11.40;39.40;;;;;;4978926;28;20200;-92
2021/05/07 15:39:56;;;;;;;2.92;2.33;;;11.40;38.60;;;;;;4985030;28;20263;-92
2021/05/07 15:42:24;;;;;;;5.20;1.70;;;11.40;38.60;;;;;;4998149;28;20212;-91
2021/05/07 15:44:50;;;;;;;3.25;2.00;;;11.20;37.10;;;;;;4979633;28;20228;-92
2021/05/07 15:47:17;;;;;;;2.05;1.65;;;11.20;37.00;;;;;;4978180;28;20267;-94
2021/05/07 15:49:43;;;;;;;1.90;1.65;;;11.30;38.40;;;;;;4984115;28;20234;-92
2021/05/07 15:52:10;;;;;;;5.90;1.90;;;11.60;35.20;;;;;;4990886;28;20257;-93
2021/05/07 16:05:07;;;;;;;2.58;2.10;;;11.10;36.40;;;;;;5014743;28;20688;-88
2021/05/07 16:11:21;;;;;;;2.08;1.60;;;10.80;36.60;;;;;;5042058;28;20206;-92
2021/05/07 16:14:06;;;;;;;5.00;1.80;;;10.80;37.00;;;;;;5042522;28;20684;-92
2021/05/07 16:16:33;;;;;;;1.60;1.50;;;10.80;36.90;;;;;;5021266;28;20226;-92
2021/05/07 16:19:08;;;;;;;1.80;1.50;;;10.90;35.80;;;;;;5022530;28;20187;-92
2021/05/07 16:30:55;;;;;;;2.97;2.00;;;10.80;38.40;;;;;;5001648;28;20282;-91
2021/05/07 16:33:26;;;;;;;3.75;1.90;;;11.00;37.50;;;;;;4986326;28;20278;-91
2021/05/07 16:35:58;;;;;;;2.05;1.75;;;11.20;36.80;;;;;;5004479;28;20211;-92
2021/05/07 16:38:35;;;;;;;2.70;2.00;;;11.20;37.20;;;;;;5001288;28;20210;-91
2021/05/07 16:41:05;;;;;;;2.50;2.00;;;11.10;37.20;;;;;;4999645;28;20200;-92
2021/05/07 16:46:54;;;;;;;2.90;2.17;;;11.00;38.70;;;;;;5002606;28;20192;-92
2021/05/07 16:49:26;;;;;;;3.78;2.55;;;10.90;39.10;;;;;;5006116;28;20192;-92
2021/05/07 17:41:41;;;;;;;4.22;2.70;;;10.30;41.60;;;;;;4990954;28;20630;-92
2021/05/07 17:44:09;;;;;;;3.38;2.55;;;10.20;42.50;;;;;;5033606;28;20202;-93
2021/05/07 17:46:38;;;;;;;4.80;2.45;;;10.20;43.10;;;;;;5033553;28;20222;-93
2021/05/07 17:49:24;;;;;;;3.58;2.75;;;10.10;42.90;;;;;;5031707;28;20210;-92
2021/05/07 17:51:50;;;;;;;4.47;2.50;;;10.10;42.30;;;;;;5029986;28;20225;-92
2021/05/07 17:57:41;;;;;;;2.67;2.43;;;9.90;44.10;;;;;;5015051;28;20209;-92
2021/05/07 18:02:52;;;;;;;32.37;7.87;;;9.70;45.50;;;;;;5013120;28;20770;-92
2021/05/07 18:08:57;;;;;;;4.80;2.43;;;9.50;47.90;;;;;;5056313;28;20221;-94
2021/05/07 18:14:24;;;;;;;2.50;2.20;;;9.50;47.90;;;;;;5019774;28;20268;-87
2021/05/07 18:16:50;;;;;;;7.30;2.80;;;9.50;47.90;;;;;;5037380;28;20198;-87
2021/05/07 18:19:17;;;;;;;4.33;2.87;;;9.50;47.90;;;;;;5035586;28;20210;-87
2021/05/07 18:21:43;;;;;;;4.50;3.00;;;9.40;47.80;;;;;;5036674;28;20202;-85
2021/05/07 18:24:10;;;;;;;3.10;2.67;;;9.40;47.80;;;;;;5037474;28;20253;-85
2021/05/07 18:26:37;;;;;;;2.57;2.33;;;9.40;47.80;;;;;;5030466;28;20686;-85
2021/05/07 18:29:04;;;;;;;3.43;2.50;;;9.30;47.70;;;;;;5034895;28;20237;-85
2021/05/07 18:31:30;;;;;;;2.60;2.23;;;9.30;47.70;;;;;;5038231;28;20608;-85
2021/05/07 18:33:59;;;;;;;4.87;2.67;;;9.20;47.70;;;;;;5034948;28;20697;-86
2021/05/07 18:36:26;;;;;;;4.30;2.73;;;9.10;49.10;;;;;;5030011;28;20302;-87
2021/05/07 18:38:52;;;;;;;3.00;2.70;;;9.00;49.20;;;;;;5026433;28;20352;-86
2021/05/07 18:41:18;;;;;;;4.93;2.30;;;9.00;52.00;;;;;;5028185;28;20223;-85
2021/05/07 18:43:46;;;;;;;5.77;2.60;;;9.00;51.50;;;;;;5030045;28;20211;-84
2021/05/07 18:46:12;;;;;;;4.97;2.97;;;8.90;52.30;;;;;;5033966;28;20984;-88
2021/05/07 18:48:39;;;;;;;4.10;2.90;;;8.70;53.20;;;;;;5036065;28;20257;-87
2021/05/07 18:51:06;;;;;;;3.07;2.60;;;8.70;53.80;;;;;;5032401;28;20227;-88
2021/05/07 18:53:32;;;;;;;3.47;2.57;;;8.60;54.00;;;;;;5039199;28;20272;-91
2021/05/07 18:56:02;;;;;;;2.77;2.30;;;8.70;54.10;;;;;;5030609;28;20292;-90
2021/05/07 18:58:29;;;;;;;5.47;3.13;;;8.70;53.00;;;;;;5036915;28;20673;-89
2021/05/07 19:04:19;;;;;;;3.93;2.80;;;8.70;55.30;;;;;;5040983;28;20212;-88
2021/05/07 19:06:47;;;;;;;3.90;2.40;;;8.70;54.20;;;;;;5036282;28;20234;-87
2021/05/07 19:09:13;;;;;;;5.40;2.90;;;8.70;54.70;;;;;;5035017;28;20199;-86
2021/05/07 19:11:40;;;;;;;5.57;3.30;;;8.70;54.80;;;;;;5035133;28;20203;-86
2021/05/07 19:14:07;;;;;;;3.93;2.67;;;8.60;55.40;;;;;;5033682;28;20226;-85
2021/05/07 19:16:40;;;;;;;5.90;3.23;;;8.50;56.00;;;;;;5035988;28;20588;-85
2021/05/07 19:19:07;;;;;;;5.60;3.03;;;8.50;57.40;;;;;;5020839;28;20228;-86
2021/05/07 19:21:34;;;;;;;4.50;2.90;;;8.50;57.90;;;;;;5040060;28;20214;-86
2021/05/07 19:24:01;;;;;;;3.73;2.73;;;8.50;58.40;;;;;;5042025;28;20213;-86
2021/05/07 19:26:28;;;;;;;6.17;3.17;;;8.40;59.10;;;;;;5033395;28;20230;-87
2021/05/07 19:28:55;;;;;;;4.00;3.30;;;8.40;59.60;;;;;;5037829;28;20226;-86
2021/05/07 19:31:22;;;;;;;6.50;3.23;;;8.30;61.20;;;;;;5036374;28;20309;-87
2021/05/07 19:33:49;;;;;;;7.47;3.70;;;8.30;61.60;;;;;;5037824;28;20711;-86
2021/05/07 19:36:17;;;;;;;5.37;3.60;;;8.20;63.20;;;;;;5040380;28;20221;-86
2021/05/07 19:38:45;;;;;;;5.13;3.47;;;8.10;64.30;;;;;;5036616;28;21444;-89
2021/05/07 19:41:15;;;;;;;6.37;3.90;;;8.00;64.30;;;;;;5037806;28;20226;-88
2021/05/07 19:43:41;;;;;;;5.53;3.50;;;7.90;67.70;;;;;;5040165;28;20206;-91
2021/05/07 19:46:08;;;;;;;5.27;3.50;;;7.90;66.10;;;;;;5035266;28;20755;-90
2021/05/07 19:48:35;;;;;;;5.57;3.57;;;7.90;66.90;;;;;;5037186;28;20202;-89
2021/05/07 19:51:01;;;;;;;6.87;3.60;;;7.80;68.00;;;;;;5040169;28;20314;-90
2021/05/07 19:53:29;;;;;;;5.50;3.77;;;7.70;69.30;;;;;;5039839;28;20226;-90
2021/05/07 19:55:56;;;;;;;4.10;2.90;;;7.50;72.30;;;;;;5035649;28;20245;-87
2021/05/07 19:58:22;;;;;;;4.37;3.17;;;7.40;72.30;;;;;;5035076;28;20206;-87
2021/05/07 20:00:49;;;;;;;4.77;3.10;;;7.40;72.30;;;;;;5032809;28;20241;-89
2021/05/07 20:03:15;;;;;;;4.10;3.00;;;7.30;72.10;;;;;;5028569;28;20686;-92
2021/05/07 20:05:42;;;;;;;5.93;3.40;;;7.10;74.70;;;;;;5032842;28;20682;-92
2021/05/07 20:08:10;;;;;;;5.23;3.37;;;7.00;75.80;;;;;;5034420;28;20202;-92
2021/05/07 20:10:37;;;;;;;6.40;3.37;;;7.00;76.80;;;;;;5022732;28;20688;-93
2021/05/07 20:13:04;;;;;;;7.13;4.80;;;7.00;77.50;;;;;;5027576;28;20213;-93
2021/05/07 20:15:37;;;;;;;6.63;4.40;;;6.90;77.90;;;;;;5020401;28;20306;-93
2021/05/07 20:18:07;;;;;;;6.30;4.47;;;6.80;78.60;;;;;;5023961;28;20210;-92
2021/05/07 20:20:34;;;;;;;8.43;5.13;;;6.80;78.70;;;;;;5029078;28;20309;-91
2021/05/07 20:23:01;;;;;;;6.97;4.93;;;6.90;79.30;;;;;;5027995;28;20203;-91
2021/05/07 20:25:27;;;;;;;6.07;4.60;;;6.80;79.20;;;;;;5034892;28;20222;-91
2021/05/07 20:27:54;;;;;;;10.47;5.40;;;6.70;80.00;;;;;;5034289;28;20198;-91
2021/05/07 20:30:22;;;;;;;7.37;5.20;;;6.70;81.20;;;;;;5031960;28;20234;-91
2021/05/07 20:36:10;;;;;;;8.73;5.03;;;6.60;82.70;;;;;;5038818;28;20225;-90
2021/05/07 20:38:37;;;;;;;6.33;4.90;;;6.60;83.40;;;;;;5038398;28;20214;-90
2021/05/07 20:44:47;;;;;;;9.87;5.40;;;6.50;83.40;;;;;;5039693;28;20182;-90
2021/05/07 20:51:00;;;;;;;8.47;4.83;;;6.30;85.50;;;;;;5039423;28;20214;-89
2021/05/07 20:53:42;;;;;;;7.57;4.33;;;6.40;84.70;;;;;;5041051;28;20229;-88
2021/05/07 20:56:09;;;;;;;7.50;4.93;;;6.40;85.10;;;;;;5020250;28;20688;-89
2021/05/07 20:58:39;;;;;;;10.03;4.93;;;6.40;84.70;;;;;;5036052;28;20543;-90
2021/05/07 21:01:24;;;;;;;6.60;4.87;;;6.40;85.00;;;;;;5040060;28;20233;-89
2021/05/07 21:04:12;;;;;;;9.97;5.27;;;6.40;85.40;;;;;;5039071;28;20305;-89
2021/05/07 21:06:56;;;;;;;9.17;5.33;;;6.40;85.60;;;;;;5037608;28;20206;-90
2021/05/07 21:09:23;;;;;;;10.60;5.00;;;6.40;86.90;;;;;;5037443;28;20646;-90
2021/05/07 21:11:49;;;;;;;6.97;4.80;;;6.40;87.60;;;;;;5037629;28;20213;-90
2021/05/07 21:14:16;;;;;;;6.30;4.47;;;6.40;87.70;;;;;;5036059;28;20314;-89
2021/05/07 21:16:42;;;;;;;7.00;4.17;;;6.40;87.50;;;;;;5038960;28;20289;-89
2021/05/07 21:19:09;;;;;;;8.73;4.67;;;6.20;89.20;;;;;;5036644;28;20242;-88
2021/05/07 21:21:36;;;;;;;6.23;4.50;;;6.10;89.70;;;;;;5035400;28;20300;-89
2021/05/07 21:24:04;;;;;;;7.80;4.60;;;6.00;89.60;;;;;;5036316;28;20245;-90
2021/05/07 21:26:31;;;;;;;7.33;4.20;;;5.90;89.50;;;;;;5037728;28;20226;-89
2021/05/07 21:34:11;;;;;;;7.37;5.53;;;5.90;89.60;;;;;;5176206;23;20230;-89
2021/05/07 21:36:47;;;;;;;8.70;5.07;;;5.90;89.50;;;;;;5015510;28;20226;-89
2021/05/07 21:39:19;;;;;;;9.00;5.30;;;5.90;89.50;;;;;;5018515;28;20638;-89
2021/05/07 21:41:49;;;;;;;8.20;5.57;;;5.80;88.60;;;;;;4995034;28;20239;-90
2021/05/07 21:44:16;;;;;;;8.53;5.57;;;5.80;89.50;;;;;;4998923;28;20204;-88
2021/05/07 21:46:44;;;;;;;9.20;5.80;;;5.70;89.40;;;;;;4990229;28;20234;-90
2021/05/07 21:49:12;;;;;;;9.03;5.90;;;5.60;89.40;;;;;;4996790;28;20303;-89
2021/05/07 21:51:46;;;;;;;11.37;6.63;;;5.50;89.50;;;;;;4985864;28;20742;-88
2021/05/07 21:54:12;;;;;;;9.80;6.23;;;5.40;90.20;;;;;;4994528;28;20229;-89
2021/05/07 21:56:42;;;;;;;9.30;5.97;;;5.40;90.40;;;;;;4997259;28;20261;-88
2021/05/07 21:59:27;;;;;;;8.03;5.50;;;5.40;90.60;;;;;;5008668;28;20235;-88
2021/05/07 22:01:58;;;;;;;11.63;5.60;;;5.30;90.90;;;;;;4998114;28;20223;-88
2021/05/07 22:04:24;;;;;;;8.80;5.70;;;5.20;91.30;;;;;;5000316;28;20253;-88
2021/05/07 22:06:54;;;;;;;8.83;5.33;;;5.20;91.20;;;;;;5021252;28;20211;-90
2021/05/07 22:09:23;;;;;;;9.53;5.20;;;5.10;91.30;;;;;;5022673;28;20635;-89
2021/05/07 22:12:09;;;;;;;9.13;5.40;;;5.20;91.30;;;;;;5020266;28;20229;-88
2021/05/07 22:14:36;;;;;;;8.17;4.93;;;5.10;91.40;;;;;;4994418;28;20262;-89
2021/05/07 22:17:04;;;;;;;10.03;5.00;;;5.10;92.00;;;;;;5016997;28;20262;-88
2021/05/07 22:19:31;;;;;;;7.63;5.40;;;5.00;92.10;;;;;;5011767;28;20265;-88
2021/05/07 22:22:11;;;;;;;5.93;4.70;;;5.00;92.40;;;;;;5015388;28;20550;-90
2021/05/07 22:24:38;;;;;;;11.00;5.40;;;5.00;92.50;;;;;;5014778;28;20274;-88
2021/05/07 22:27:12;;;;;;;7.03;4.20;;;5.10;92.40;;;;;;5017081;28;20570;-90
2021/05/07 22:29:39;;;;;;;5.20;4.43;;;5.10;92.10;;;;;;5010733;28;20313;-88
2021/05/07 22:32:06;;;;;;;6.57;4.40;;;5.10;92.30;;;;;;5022915;28;20233;-88
2021/05/07 22:34:32;;;;;;;6.73;4.70;;;5.10;92.50;;;;;;5018551;28;20227;-88
2021/05/07 22:36:59;;;;;;;7.10;4.37;;;5.00;92.50;;;;;;5024377;28;20622;-87
2021/05/07 22:39:25;;;;;;;7.10;4.50;;;4.90;92.90;;;;;;5032897;28;20660;-88
2021/05/07 22:41:52;;;;;;;6.83;4.27;;;4.80;93.60;;;;;;5019597;28;20231;-87
2021/05/07 22:44:18;;;;;;;5.97;4.50;;;4.80;93.70;;;;;;5026453;28;20650;-88
2021/05/07 22:46:45;;;;;;;4.67;3.97;;;4.80;93.80;;;;;;5026112;28;20277;-88
2021/05/07 22:49:14;;;;;;;7.20;4.50;;;4.90;93.70;;;;;;5025230;28;20207;-87
2021/05/07 22:52:03;;;;;;;5.47;4.20;;;4.90;93.50;;;;;;5017864;28;20278;-87
2021/05/07 22:54:29;;;;;;;8.43;4.20;;;5.00;93.20;;;;;;5021322;28;20203;-89
2021/05/07 22:57:00;;;;;;;6.27;4.13;;;5.00;93.30;;;;;;5024348;28;20562;-87
2021/05/07 22:59:35;;;;;;;5.13;4.20;;;5.10;93.20;;;;;;5009277;28;20639;-87
2021/05/07 23:02:03;;;;;;;6.03;3.90;;;5.00;93.10;;;;;;5030022;28;20214;-88
2021/05/07 23:04:29;;;;;;;4.40;4.00;;;5.00;93.20;;;;;;5032014;28;20217;-87
2021/05/07 23:07:04;;;;;;;5.27;4.20;;;4.80;93.50;;;;;;5001961;28;20226;-87